createdAt,value
2022-11-05T00:00:36.929Z,18.43
2022-11-05T00:03:23.054Z,16.43
2022-11-05T00:06:12.342Z,14.90
2022-11-05T00:09:13.685Z,17.10
2022-11-05T00:11:59.220Z,18.50
2022-11-05T00:14:44.651Z,18.10
2022-11-05T00:17:11.414Z,17.37
2022-11-05T00:19:38.122Z,25.13
2022-11-05T00:22:23.867Z,16.63
2022-11-05T00:25:09.216Z,16.20
2022-11-05T00:27:36.014Z,14.83
2022-11-05T00:30:02.838Z,14.23
2022-11-05T00:32:29.651Z,15.23
2022-11-05T00:34:56.462Z,13.13
2022-11-05T00:37:23.155Z,13.63
2022-11-05T00:39:49.881Z,11.37
2022-11-05T00:42:35.155Z,20.67
2022-11-05T00:45:02.094Z,12.83
2022-11-05T00:47:49.599Z,14.47
2022-11-05T00:50:16.476Z,19.53
2022-11-05T00:52:55.664Z,14.37
2022-11-05T00:55:40.709Z,26.47
2022-11-05T00:58:13.094Z,24.33
2022-11-05T01:00:42.273Z,19.77
2022-11-05T01:03:14.770Z,17.97
2022-11-05T01:05:45.097Z,26.60
2022-11-05T01:08:13.326Z,29.15
2022-11-05T01:10:41.799Z,43.73
2022-11-05T01:13:12.911Z,56.97
2022-11-05T01:15:40.765Z,22.00
2022-11-05T01:18:07.786Z,41.17
2022-11-05T01:20:34.584Z,62.17
2022-11-05T01:23:01.377Z,61.60
2022-11-05T01:25:28.307Z,50.03
2022-11-05T01:27:55.307Z,32.90
2022-11-05T01:30:22.706Z,28.40
2022-11-05T01:32:49.864Z,36.03
2022-11-05T01:35:17.715Z,15.67
2022-11-05T01:37:44.488Z,15.20
2022-11-05T01:40:15.246Z,42.40
2022-11-05T01:42:42.281Z,24.37
2022-11-05T01:45:12.877Z,17.70
2022-11-05T01:47:43.283Z,12.97
2022-11-05T01:50:35.740Z,23.73
2022-11-05T01:53:24.957Z,13.80
2022-11-05T01:56:15.014Z,13.90
2022-11-05T01:58:57.304Z,14.63
2022-11-05T02:01:24.729Z,15.53
2022-11-05T02:03:55.491Z,14.03
2022-11-05T02:06:22.410Z,13.83
2022-11-05T02:08:58.670Z,13.43
2022-11-05T02:11:25.509Z,13.10
2022-11-05T02:13:52.574Z,29.97
2022-11-05T02:16:53.055Z,14.60
2022-11-05T02:19:38.238Z,12.47
2022-11-05T02:22:26.203Z,13.80
2022-11-05T02:25:11.087Z,14.53
2022-11-05T02:28:04.054Z,13.20
2022-11-05T02:30:42.757Z,11.53
2022-11-05T02:33:27.505Z,12.57
2022-11-05T02:36:19.770Z,12.47
2022-11-05T02:39:16.668Z,10.60
2022-11-05T02:42:11.670Z,10.40
2022-11-05T02:44:47.666Z,9.43
2022-11-05T02:47:29.634Z,8.37
2022-11-05T02:50:21.324Z,10.80
2022-11-05T02:53:25.269Z,11.53
2022-11-05T02:55:59.728Z,6.67
2022-11-05T02:58:30.657Z,12.27
2022-11-05T03:00:58.383Z,11.83
2022-11-05T03:03:31.484Z,10.93
2022-11-05T03:06:35.613Z,11.77
2022-11-05T03:09:26.782Z,11.77
2022-11-05T03:12:16.366Z,12.60
2022-11-05T03:15:14.124Z,11.95
2022-11-05T03:17:59.634Z,12.03
2022-11-05T03:20:36.181Z,11.90
2022-11-05T03:23:22.135Z,13.37
2022-11-05T03:25:53.776Z,8.77
2022-11-05T03:28:24.533Z,10.23
2022-11-05T03:30:55.271Z,9.53
2022-11-05T03:33:26.750Z,10.00
2022-11-05T03:36:05.348Z,12.77
2022-11-05T03:38:37.639Z,9.30
2022-11-05T03:41:09.083Z,8.73
2022-11-05T03:43:40.835Z,9.60
2022-11-05T03:46:19.600Z,8.47
2022-11-05T03:48:50.630Z,10.67
2022-11-05T03:51:28.910Z,10.23
2022-11-05T03:53:58.016Z,10.43
2022-11-05T03:56:37.807Z,10.90
2022-11-05T03:59:06.483Z,10.45
2022-11-05T04:01:33.719Z,10.23
2022-11-05T04:04:00.593Z,9.50
2022-11-05T04:06:45.970Z,9.97
2022-11-05T04:09:31.473Z,8.30
2022-11-05T04:12:16.974Z,10.03
2022-11-05T04:14:43.767Z,12.53
2022-11-05T04:17:10.533Z,11.37
2022-11-05T04:19:57.028Z,7.77
2022-11-05T04:22:43.585Z,8.03
2022-11-05T04:25:10.539Z,8.70
2022-11-05T04:27:37.506Z,9.50
2022-11-05T04:30:20.943Z,7.53
2022-11-05T04:33:07.554Z,9.27
2022-11-05T04:35:36.294Z,6.07
2022-11-05T04:38:08.203Z,7.90
2022-11-05T04:40:35.261Z,8.87
2022-11-05T04:43:02.618Z,8.67
2022-11-05T04:45:31.739Z,8.40
2022-11-05T04:47:59.583Z,10.37
2022-11-05T04:50:26.678Z,9.10
2022-11-05T04:52:53.479Z,10.10
2022-11-05T04:55:20.489Z,10.20
2022-11-05T04:57:49.725Z,8.67
2022-11-05T05:00:17.451Z,8.53
2022-11-05T05:02:44.805Z,8.00
2022-11-05T05:05:11.878Z,7.87
2022-11-05T05:07:38.605Z,7.40
2022-11-05T05:10:07.356Z,9.13
2022-11-05T05:12:35.234Z,6.47
2022-11-05T05:15:02.228Z,8.60
2022-11-05T05:17:28.997Z,9.50
2022-11-05T05:20:14.477Z,8.60
2022-11-05T05:22:41.196Z,10.37
2022-11-05T05:25:08.250Z,11.23
2022-11-05T05:27:35.119Z,8.77
2022-11-05T05:30:02.094Z,7.97
2022-11-05T05:32:28.814Z,5.93
2022-11-05T05:34:55.689Z,7.97
2022-11-05T05:37:22.395Z,7.33
2022-11-05T05:39:49.873Z,7.40
2022-11-05T05:42:16.786Z,6.73
2022-11-05T05:44:43.547Z,7.37
2022-11-05T05:47:10.258Z,7.80
2022-11-05T05:49:37.085Z,9.87
2022-11-05T05:52:03.963Z,7.43
2022-11-05T05:54:33.524Z,7.00
2022-11-05T05:57:02.029Z,5.87
2022-11-05T05:59:28.766Z,5.87
2022-11-05T06:01:55.619Z,5.97
2022-11-05T06:04:22.622Z,6.77
2022-11-05T06:06:49.314Z,5.50
2022-11-05T06:09:16.313Z,5.07
2022-11-05T06:11:43.096Z,5.70
2022-11-05T06:14:11.736Z,5.60
2022-11-05T06:16:40.063Z,5.83
2022-11-05T06:19:08.112Z,6.60
2022-11-05T06:21:35.146Z,5.70
2022-11-05T06:24:02.916Z,6.70
2022-11-05T06:26:30.462Z,7.27
2022-11-05T06:28:57.438Z,6.00
2022-11-05T06:31:24.652Z,10.07
2022-11-05T06:33:51.693Z,8.27
2022-11-05T06:36:19.511Z,10.67
2022-11-05T06:38:46.313Z,9.03
2022-11-05T06:41:13.309Z,9.00
2022-11-05T06:43:40.409Z,9.90
2022-11-05T06:46:07.342Z,10.53
2022-11-05T06:48:34.637Z,9.77
2022-11-05T06:51:01.380Z,8.90
2022-11-05T06:53:28.548Z,8.60
2022-11-05T06:55:55.400Z,8.90
2022-11-05T06:58:22.262Z,9.33
2022-11-05T07:00:49.499Z,6.07
2022-11-05T07:03:16.303Z,4.17
2022-11-05T07:05:46.482Z,4.83
2022-11-05T07:08:13.516Z,4.35
2022-11-05T07:10:40.376Z,5.73
2022-11-05T07:13:08.723Z,4.90
2022-11-05T07:15:37.041Z,5.03
2022-11-05T07:18:07.527Z,6.00
2022-11-05T07:20:34.799Z,5.50
2022-11-05T07:23:13.169Z,3.87
2022-11-05T07:25:41.401Z,4.47
2022-11-05T07:28:09.546Z,6.20
2022-11-05T07:30:37.061Z,6.17
2022-11-05T07:33:03.910Z,6.50
2022-11-05T07:35:30.698Z,6.77
2022-11-05T07:37:57.851Z,7.63
2022-11-05T07:40:26.239Z,8.33
2022-11-05T07:42:55.592Z,7.43
2022-11-05T07:45:23.232Z,8.47
2022-11-05T07:47:58.663Z,7.07
2022-11-05T07:50:27.778Z,9.17
2022-11-05T07:52:59.264Z,9.30
2022-11-05T07:55:25.962Z,9.73
2022-11-05T07:57:52.724Z,9.53
2022-11-05T08:00:24.095Z,8.40
2022-11-05T08:03:14.232Z,7.77
2022-11-05T08:05:44.766Z,6.60
2022-11-05T08:08:13.854Z,7.93
2022-11-05T08:10:41.230Z,9.17
2022-11-05T08:13:08.560Z,8.20
2022-11-05T08:15:36.409Z,7.80
2022-11-05T08:18:05.893Z,8.03
2022-11-05T08:20:33.330Z,7.85
2022-11-05T08:23:00.297Z,7.40
2022-11-05T08:25:27.488Z,8.23
2022-11-05T08:28:08.663Z,9.70
2022-11-05T08:30:35.908Z,8.63
2022-11-05T08:33:05.761Z,8.63
2022-11-05T08:35:35.618Z,9.00
2022-11-05T08:38:04.290Z,9.20
2022-11-05T08:40:33.335Z,6.85
2022-11-05T08:43:02.798Z,7.63
2022-11-05T08:45:30.009Z,7.57
2022-11-05T08:48:16.801Z,6.93
2022-11-05T08:50:45.878Z,7.47
2022-11-05T08:53:13.712Z,7.33
2022-11-05T08:55:40.801Z,6.82
2022-11-05T08:58:12.683Z,6.60
2022-11-05T09:00:40.302Z,7.55
2022-11-05T09:03:08.883Z,7.47
2022-11-05T09:05:40.559Z,6.40
2022-11-05T09:08:09.355Z,6.65
2022-11-05T09:10:37.324Z,6.85
2022-11-05T09:13:04.580Z,6.40
2022-11-05T09:15:32.192Z,7.00
2022-11-05T09:17:59.909Z,6.70
2022-11-05T09:20:26.660Z,7.72
2022-11-05T09:22:53.731Z,7.53
2022-11-05T09:25:20.733Z,6.35
2022-11-05T09:27:47.435Z,7.90
2022-11-05T09:30:14.605Z,6.53
2022-11-05T09:32:42.004Z,8.32
2022-11-05T09:35:10.562Z,10.10
2022-11-05T09:37:37.467Z,9.35
2022-11-05T09:40:05.232Z,8.13
2022-11-05T09:42:39.662Z,8.02
2022-11-05T09:45:17.081Z,7.22
2022-11-05T09:47:49.206Z,8.15
2022-11-05T09:50:20.478Z,6.82
2022-11-05T09:52:47.331Z,7.25
2022-11-05T09:55:31.980Z,8.55
2022-11-05T09:58:03.301Z,9.85
2022-11-05T10:00:32.759Z,6.43
2022-11-05T10:03:11.839Z,6.82
2022-11-05T10:05:40.751Z,7.60
2022-11-05T10:08:24.245Z,7.55
2022-11-05T10:10:53.710Z,6.07
2022-11-05T10:13:44.476Z,5.70
2022-11-05T10:16:20.174Z,7.00
2022-11-05T10:18:54.311Z,7.80
2022-11-05T10:21:44.327Z,5.60
2022-11-05T10:24:20.763Z,7.93
2022-11-05T10:26:53.432Z,6.55
2022-11-05T10:29:29.952Z,6.57
2022-11-05T10:31:59.225Z,8.05
2022-11-05T10:34:30.457Z,7.15
2022-11-05T10:36:57.335Z,5.57
2022-11-05T10:39:27.813Z,6.50
2022-11-05T10:42:19.481Z,8.90
2022-11-05T10:45:15.991Z,7.95
2022-11-05T10:47:57.575Z,8.82
2022-11-05T10:50:29.806Z,9.18
2022-11-05T10:53:12.074Z,8.25
2022-11-05T10:55:44.478Z,9.77
2022-11-05T10:58:17.374Z,8.90
2022-11-05T11:00:59.935Z,8.95
2022-11-05T11:03:35.540Z,9.52
2022-11-05T11:06:07.859Z,9.10
2022-11-05T11:08:36.817Z,10.07
2022-11-05T11:11:07.976Z,8.68
2022-11-05T11:13:58.944Z,7.78
2022-11-05T11:16:28.316Z,10.10
2022-11-05T11:19:01.653Z,9.25
2022-11-05T11:21:30.446Z,8.98
2022-11-05T11:23:59.586Z,8.73
2022-11-05T11:26:36.402Z,11.88
2022-11-05T11:29:15.836Z,8.10
2022-11-05T11:31:42.949Z,8.10
2022-11-05T11:34:18.819Z,12.68
2022-11-05T11:36:53.820Z,12.48
2022-11-05T11:39:26.666Z,13.75
2022-11-05T11:41:57.933Z,12.98
2022-11-05T11:44:30.340Z,8.93
2022-11-05T11:47:03.327Z,7.45
2022-11-05T11:49:38.834Z,7.80
2022-11-05T11:52:14.418Z,8.00
2022-11-05T11:54:41.223Z,8.48
2022-11-05T11:57:29.420Z,7.82
2022-11-05T12:00:13.448Z,8.50
2022-11-05T12:02:56.009Z,8.55
2022-11-05T12:05:54.153Z,7.50
2022-11-05T12:08:45.971Z,7.63
2022-11-05T12:11:42.345Z,8.07
2022-11-05T12:14:14.047Z,9.18
2022-11-05T12:16:40.856Z,8.27
2022-11-05T12:19:32.325Z,8.35
2022-11-05T12:21:58.969Z,10.23
2022-11-05T12:24:50.713Z,15.50
2022-11-05T12:27:17.341Z,8.13
2022-11-05T12:30:00.234Z,8.75
2022-11-05T12:32:57.941Z,8.68
2022-11-05T12:36:00.499Z,16.58
2022-11-05T12:38:42.132Z,14.98
2022-11-05T12:41:31.288Z,17.35
2022-11-05T12:44:25.016Z,13.38
2022-11-05T12:47:14.881Z,13.10
2022-11-05T12:49:58.146Z,17.98
2022-11-05T12:52:35.941Z,9.00
2022-11-05T12:55:37.210Z,8.50
2022-11-05T12:58:26.673Z,8.13
2022-11-05T13:01:01.820Z,8.00
2022-11-05T13:03:35.233Z,9.27
2022-11-05T13:06:25.861Z,8.90
2022-11-05T13:09:27.953Z,10.00
2022-11-05T13:12:03.195Z,10.07
2022-11-05T13:14:52.345Z,11.38
2022-11-05T13:17:24.369Z,10.68
2022-11-05T13:20:05.870Z,11.70
2022-11-05T13:22:38.607Z,10.55
2022-11-05T13:25:29.368Z,11.55
2022-11-05T13:28:38.634Z,11.40
2022-11-05T13:31:13.670Z,10.65
2022-11-05T13:33:44.013Z,10.57
2022-11-05T13:36:38.492Z,12.20
2022-11-05T13:39:09.436Z,12.13
2022-11-05T13:42:03.762Z,11.13
2022-11-05T13:44:36.394Z,11.45
2022-11-05T13:47:21.760Z,10.40
2022-11-05T13:50:09.872Z,10.18
2022-11-05T13:53:12.198Z,12.60
2022-11-05T13:55:47.772Z,11.60
2022-11-05T13:58:51.821Z,11.13
2022-11-05T14:01:56.059Z,10.68
2022-11-05T14:04:31.895Z,10.93
2022-11-05T14:07:08.103Z,11.82
2022-11-05T14:09:36.951Z,9.40
2022-11-05T14:12:05.665Z,9.45
2022-11-05T14:14:44.649Z,9.15
2022-11-05T14:17:25.926Z,9.30
2022-11-05T14:20:01.873Z,9.43
2022-11-05T14:22:35.441Z,9.30
2022-11-05T14:25:24.488Z,7.95
2022-11-05T14:27:54.454Z,8.10
2022-11-05T14:33:15.627Z,7.40
2022-11-05T14:35:42.590Z,7.82
2022-11-05T14:38:27.323Z,8.98
2022-11-05T14:41:02.924Z,8.55
2022-11-05T14:43:33.986Z,7.93
2022-11-05T14:46:03.735Z,7.88
2022-11-05T14:48:33.282Z,8.30
2022-11-05T14:51:00.102Z,8.35
2022-11-05T14:53:39.311Z,7.43
2022-11-05T14:56:16.073Z,6.97
2022-11-05T14:58:44.600Z,8.77
2022-11-05T15:01:14.195Z,6.82
2022-11-05T15:03:45.864Z,7.65
2022-11-05T15:06:34.167Z,6.70
2022-11-05T15:09:00.865Z,6.50
2022-11-05T15:11:39.193Z,8.30
2022-11-05T15:14:18.800Z,7.53
2022-11-05T15:16:53.702Z,7.45
2022-11-05T15:19:29.533Z,7.13
2022-11-05T15:21:59.959Z,6.22
2022-11-05T15:24:30.111Z,6.82
2022-11-05T15:27:43.367Z,7.78
2022-11-05T15:30:19.623Z,6.55
2022-11-05T15:32:47.015Z,6.03
2022-11-05T15:35:25.435Z,5.88
2022-11-05T15:37:58.858Z,7.20
2022-11-05T15:40:30.973Z,5.15
2022-11-05T15:43:20.020Z,5.38
2022-11-05T15:46:03.371Z,7.75
2022-11-05T15:48:31.139Z,6.05
2022-11-05T15:50:58.517Z,6.80
2022-11-05T15:54:23.808Z,7.35
2022-11-05T15:56:51.313Z,6.50
2022-11-05T15:59:23.767Z,6.00
2022-11-05T16:01:56.573Z,6.20
2022-11-05T16:04:27.314Z,7.15
2022-11-05T16:07:01.121Z,9.30
2022-11-05T16:09:30.835Z,9.45
2022-11-05T16:12:19.623Z,6.68
2022-11-05T16:15:00.198Z,6.75
2022-11-05T16:17:30.583Z,6.77
2022-11-05T16:19:57.919Z,6.17
2022-11-05T16:22:26.016Z,7.20
2022-11-05T16:24:52.806Z,6.93
2022-11-05T16:27:22.162Z,7.00
2022-11-05T16:29:49.031Z,7.57
2022-11-05T16:32:31.374Z,6.67
2022-11-05T16:35:04.088Z,6.87
2022-11-05T16:37:41.156Z,10.20
2022-11-05T16:40:15.755Z,7.20
2022-11-05T16:42:43.016Z,6.83
2022-11-05T16:45:13.555Z,6.87
2022-11-05T16:47:40.523Z,6.57
2022-11-05T16:50:24.815Z,6.73
2022-11-05T16:52:51.830Z,6.60
2022-11-05T16:55:19.273Z,7.67
2022-11-05T16:57:51.297Z,6.90
2022-11-05T17:00:20.318Z,6.60
2022-11-05T17:02:47.738Z,7.03
2022-11-05T17:05:17.630Z,7.80
2022-11-05T17:07:44.327Z,7.82
2022-11-05T17:10:11.345Z,6.37
2022-11-05T17:12:38.299Z,8.03
2022-11-05T17:15:24.590Z,7.20
2022-11-05T17:17:52.609Z,6.60
2022-11-05T17:20:41.642Z,6.77
2022-11-05T17:23:14.676Z,8.77
2022-11-05T17:25:44.915Z,6.93
2022-11-05T17:28:12.054Z,7.10
2022-11-05T17:30:41.385Z,6.87
2022-11-05T17:33:10.233Z,8.68
2022-11-05T17:35:41.031Z,6.83
2022-11-05T17:38:08.983Z,9.43
2022-11-05T17:40:37.452Z,8.67
2022-11-05T17:43:04.988Z,8.17
2022-11-05T17:45:31.863Z,6.57
2022-11-05T17:47:58.714Z,8.57
2022-11-05T17:50:25.398Z,8.30
2022-11-05T17:52:52.080Z,8.33
2022-11-05T17:55:19.125Z,9.20
2022-11-05T17:57:50.461Z,7.23
2022-11-05T18:00:21.854Z,6.33
2022-11-05T18:02:49.809Z,7.40
2022-11-05T18:05:22.069Z,6.40
2022-11-05T18:07:49.122Z,7.53
2022-11-05T18:10:16.171Z,7.47
2022-11-05T18:12:43.561Z,11.23
2022-11-05T18:15:10.537Z,7.53
2022-11-05T18:17:37.515Z,7.70
2022-11-05T18:20:11.685Z,9.07
2022-11-05T18:22:42.083Z,8.63
2022-11-05T18:25:11.067Z,8.97
2022-11-05T18:27:37.952Z,8.83
2022-11-05T18:30:05.369Z,8.83
2022-11-05T18:32:32.457Z,8.93
2022-11-05T18:34:59.214Z,8.87
2022-11-05T18:37:26.043Z,10.37
2022-11-05T18:39:53.576Z,11.13
2022-11-05T18:42:21.351Z,9.77
2022-11-05T18:44:48.879Z,9.40
2022-11-05T18:47:15.904Z,10.83
2022-11-05T18:49:42.676Z,11.43
2022-11-05T18:52:09.511Z,9.33
2022-11-05T18:54:36.414Z,10.97
2022-11-05T18:57:03.225Z,11.10
2022-11-05T18:59:37.800Z,10.30
2022-11-05T19:02:06.785Z,12.00
2022-11-05T19:04:36.034Z,10.10
2022-11-05T19:07:05.371Z,11.93
2022-11-05T19:09:37.512Z,10.90
2022-11-05T19:12:05.987Z,10.97
2022-11-05T19:14:32.777Z,11.37
2022-11-05T19:17:00.431Z,11.03
2022-11-05T19:19:28.077Z,11.33
2022-11-05T19:21:54.839Z,11.90
2022-11-05T19:24:21.754Z,11.30
2022-11-05T19:26:48.706Z,11.27
2022-11-05T19:29:15.405Z,11.03
2022-11-05T19:31:42.323Z,12.70
2022-11-05T19:34:09.261Z,10.70
2022-11-05T19:36:35.975Z,12.17
2022-11-05T19:39:09.243Z,13.83
2022-11-05T19:41:36.238Z,12.57
2022-11-05T19:44:03.442Z,12.23
2022-11-05T19:46:31.432Z,13.87
2022-11-05T19:49:00.357Z,11.43
2022-11-05T19:51:30.345Z,11.97
2022-11-05T19:54:00.006Z,14.55
2022-11-05T19:56:30.035Z,18.25
2022-11-05T19:58:57.744Z,13.48
2022-11-05T20:01:26.421Z,13.23
2022-11-05T20:03:54.619Z,14.93
2022-11-05T20:06:28.830Z,14.93
2022-11-05T20:11:49.520Z,14.60
2022-11-05T20:14:16.258Z,13.17
2022-11-05T20:16:45.150Z,15.40
2022-11-05T20:19:15.400Z,16.80
2022-11-05T20:24:10.666Z,16.80
2022-11-05T20:26:37.518Z,18.33
2022-11-05T20:29:04.298Z,19.20
2022-11-05T20:31:31.093Z,17.57
2022-11-05T20:33:58.091Z,19.43
2022-11-05T20:36:26.771Z,18.90
2022-11-05T20:38:58.483Z,21.93
2022-11-05T20:41:26.359Z,19.77
2022-11-05T20:43:53.506Z,17.77
2022-11-05T20:46:22.202Z,20.00
2022-11-05T20:48:49.571Z,20.33
2022-11-05T20:51:19.370Z,19.93
2022-11-05T20:53:47.161Z,19.10
2022-11-05T20:56:34.902Z,21.40
2022-11-05T20:59:02.681Z,20.80
2022-11-05T21:01:33.102Z,23.80
2022-11-05T21:04:00.022Z,22.37
2022-11-05T21:06:26.994Z,20.43
2022-11-05T21:08:54.043Z,21.20
2022-11-05T21:11:20.817Z,20.00
2022-11-05T21:13:48.257Z,19.23
2022-11-05T21:16:18.444Z,19.73
2022-11-05T21:18:46.219Z,18.03
2022-11-05T21:21:16.474Z,16.87
2022-11-05T21:26:12.781Z,18.00
2022-11-05T21:28:41.170Z,17.00
2022-11-05T21:31:08.032Z,14.03
2022-11-05T21:33:36.207Z,16.27
2022-11-05T21:36:08.993Z,18.27
2022-11-05T21:38:36.109Z,15.43
2022-11-05T21:41:03.996Z,16.73
2022-11-05T21:43:31.434Z,15.07
2022-11-05T21:46:01.917Z,12.17
2022-11-05T21:48:29.146Z,13.50
2022-11-05T21:51:14.586Z,18.27
2022-11-05T21:54:00.120Z,16.70
2022-11-05T21:56:46.260Z,20.73
2022-11-05T21:59:35.091Z,25.67
2022-11-05T22:02:02.705Z,28.00
2022-11-05T22:04:38.086Z,25.27
2022-11-05T22:07:05.884Z,20.87
2022-11-05T22:09:33.338Z,20.13
2022-11-05T22:12:00.688Z,21.97
2022-11-05T22:14:28.480Z,16.83
2022-11-05T22:16:56.235Z,19.73
2022-11-05T22:19:23.495Z,19.90
2022-11-05T22:21:50.466Z,22.83
2022-11-05T22:24:17.472Z,19.73
2022-11-05T22:26:44.424Z,22.00
2022-11-05T22:29:12.125Z,17.00
2022-11-05T22:31:39.127Z,21.67
2022-11-05T22:34:08.167Z,20.30
2022-11-05T22:36:35.566Z,23.10
2022-11-05T22:39:03.743Z,18.07
2022-11-05T22:41:31.119Z,17.67
2022-11-05T22:43:58.362Z,20.97
2022-11-05T22:46:26.843Z,20.60
2022-11-05T22:48:54.119Z,20.80
2022-11-05T22:51:32.933Z,18.77
2022-11-05T22:54:00.945Z,19.40
2022-11-05T22:56:30.587Z,19.63
2022-11-05T22:58:58.500Z,18.88
2022-11-05T23:01:26.321Z,20.80
2022-11-05T23:03:54.991Z,22.07
2022-11-05T23:06:45.371Z,21.13
2022-11-05T23:09:37.260Z,21.17
2022-11-05T23:12:07.862Z,23.00
2022-11-05T23:14:36.632Z,21.63
2022-11-05T23:17:22.766Z,18.13
2022-11-05T23:20:08.157Z,20.23
2022-11-05T23:22:53.737Z,21.50
2022-11-05T23:25:22.280Z,21.10
2022-11-05T23:27:54.482Z,20.67
2022-11-05T23:30:23.640Z,19.93
2022-11-05T23:32:51.468Z,17.83
2022-11-05T23:35:18.377Z,14.90
2022-11-05T23:38:04.139Z,15.73
2022-11-05T23:40:52.399Z,17.80
2022-11-05T23:43:37.892Z,17.93
2022-11-05T23:46:25.947Z,14.83
2022-11-05T23:48:52.645Z,15.90
2022-11-05T23:51:19.334Z,17.00
2022-11-05T23:53:46.085Z,16.00
2022-11-05T23:56:15.306Z,13.70
2022-11-05T23:58:42.814Z,13.97
